Weather at Accomack County Airport

Public forecast

Using degrees Fahrenheit for public forecast. Weather courtesy of forecast.io.

Current aviation weather report (METAR) for Accomack County Airport

2024/04/12 17:15 (retrieved 1 hour ago)

KMFV 121715Z AUTO 25017G26KT 10SM CLR A2958 RMK AO2

Closest aviation forecast (TAF) to Accomack County Airport

Closest forecast is Salisbury Ocean City Wicomico Regional Airport, 43.3 nm (80.2 km) NNE.

2024/04/12 18:40 (retrieved 0 seconds ago)

TAF KSBY 121737Z 1218/1318 24021G29KT P6SM BKN060 FM122200 24015G24KT P6SM SCT060 FM130000 26012G21KT P6SM BKN100 FM131400 28018G31KT P6SM FEW200